sensor_id;sensor_type;location;lat;lon;timestamp;pressure;altitude;pressure_sealevel;temperature;humidity
55014;BME280;40916;51.632;5.552;2022-12-18T00:00:24;1023.4351443192737;;;-6.437658323348511;0
55014;BME280;40916;51.632;5.552;2022-12-18T00:01:24;1023.3855133190241;;;-6.437658323348511;0
55014;BME280;40916;51.632;5.552;2022-12-18T00:02:24;1023.4563387471027;;;-6.387818679822082;0
55014;BME280;40916;51.632;5.552;2022-12-18T00:03:24;1023.4917403688332;;;-6.371213293402441;0
55014;BME280;40916;51.632;5.552;2022-12-18T00:04:25;1023.4952185615474;;;-6.354611815629756;0
55014;BME280;40916;51.632;5.552;2022-12-18T00:05:24;1023.565960155215;;;-6.321420573095953;0
55014;BME280;40916;51.632;5.552;2022-12-18T00:06:25;1023.4773103596868;;;-6.321420573095953;0
55014;BME280;40916;51.632;5.552;2022-12-18T00:07:25;1023.5234082447249;;;-6.321420573095953;0
55014;BME280;40916;51.632;5.552;2022-12-18T00:08:25;1023.5197523461813;;;-6.304830801879092;0
55014;BME280;40916;51.632;5.552;2022-12-18T00:09:25;1023.5871286962202;;;-6.304830801879092;0
55014;BME280;40916;51.632;5.552;2022-12-18T00:10:25;1023.4914943223208;;;-6.321420573095953;0
55014;BME280;40916;51.632;5.552;2022-12-18T00:11:26;1023.4702688257644;;;-6.329716920612086;0
55014;BME280;40916;51.632;5.552;2022-12-18T00:12:25;1023.4703156556856;;;-6.338014243270809;0
55014;BME280;40916;51.632;5.552;2022-12-18T00:13:25;1023.4563387471027;;;-6.387818679822082;0
55014;BME280;40916;51.632;5.552;2022-12-18T00:14:25;1023.605267405212;;;-6.396122839785871;0
55014;BME280;40916;51.632;5.552;2022-12-18T00:15:25;1023.5840374501686;;;-6.437658323348511;0
55014;BME280;40916;51.632;5.552;2022-12-18T00:16:26;1023.6407374415531;;;-6.462591375086866;0
55014;BME280;40916;51.632;5.552;2022-12-18T00:17:26;1023.6335940830569;;;-6.487533261436663;0
55014;BME280;40916;51.632;5.552;2022-12-18T00:18:26;1023.6228742545471;;;-6.512483993391665;0
55014;BME280;40916;51.632;5.552;2022-12-18T00:19:26;1023.6546980644325;;;-6.52912273435739;0
55014;BME280;40916;51.632;5.552;2022-12-18T00:20:26;1023.5410338613627;;;-6.570736829420962;0
55014;BME280;40916;51.632;5.552;2022-12-18T00:21:27;1023.5090783050351;;;-6.57906260758962;0
55014;BME280;40916;51.632;5.552;2022-12-18T00:22:26;1023.4662800842382;;;-6.612375597778449;0
55014;BME280;40916;51.632;5.552;2022-12-18T00:23:27;1023.4660386229366;;;-6.637370723305935;0
55014;BME280;40916;51.632;5.552;2022-12-18T00:24:26;1023.4764894332955;;;-6.654039090722701;0
55014;BME280;40916;51.632;5.552;2022-12-18T00:25:27;1023.4441981285626;;;-6.687387721340187;0
55014;BME280;40916;51.632;5.552;2022-12-18T00:26:28;1023.3268247260902;;;-6.720752235009481;0
55014;BME280;40916;51.632;5.552;2022-12-18T00:27:27;1023.2874788128902;;;-6.7457860594288555;0
55014;BME280;40916;51.632;5.552;2022-12-18T00:28:27;1023.3258937841377;;;-6.779178432141617;0
55014;BME280;40916;51.632;5.552;2022-12-18T00:29:27;1023.357319163943;;;-6.804233181317585;0
55014;BME280;40916;51.632;5.552;2022-12-18T00:30:27;1023.3817910510174;;;-6.820941339214318;0
55014;BME280;40916;51.632;5.552;2022-12-18T00:31:27;1023.3315150323688;;;-6.8543696502716;0
55014;BME280;40916;51.632;5.552;2022-12-18T00:32:27;1023.3598492988714;;;-6.8543696502716;0
55014;BME280;40916;51.632;5.552;2022-12-18T00:33:27;1023.4129760676186;;;-6.8543696502716;0
55014;BME280;40916;51.632;5.552;2022-12-18T00:34:28;1023.3557518009801;;;-6.879451392561357;0
55014;BME280;40916;51.632;5.552;2022-12-18T00:35:28;1023.3807323034283;;;-6.8710898101059925;0
55014;BME280;40916;51.632;5.552;2022-12-18T00:36:28;1023.3197489051927;;;-6.904542155098749;0
55014;BME280;40916;51.632;5.552;2022-12-18T00:37:28;1023.3582928350032;;;-6.921274346953268;0
55014;BME280;40916;51.632;5.552;2022-12-18T00:38:28;1023.3972466603994;;;-6.921274346953268;0
55014;BME280;40916;51.632;5.552;2022-12-18T00:39:28;1023.3149337712521;;;-6.954750786146967;0
55014;BME280;40916;51.632;5.552;2022-12-18T00:40:28;1023.2582779295477;;;-6.954750786146967;0
55014;BME280;40916;51.632;5.552;2022-12-18T00:41:28;1023.271989204166;;;-6.9714950402047045;0
55014;BME280;40916;51.632;5.552;2022-12-18T00:42:28;1023.3073977862307;;;-6.9714950402047045;0
55014;BME280;40916;51.632;5.552;2022-12-18T00:43:28;1023.3645076559304;;;-6.954750786146967;0
55014;BME280;40916;51.632;5.552;2022-12-18T00:44:29;1023.2436623464635;;;-6.9714950402047045;0
55014;BME280;40916;51.632;5.552;2022-12-18T00:45:30;1023.3009911086574;;;-6.946380168363625;0
55014;BME280;40916;51.632;5.552;2022-12-18T00:46:29;1023.3724578608741;;;-6.921274346953268;0
55014;BME280;40916;51.632;5.552;2022-12-18T00:47:29;1023.3551627802492;;;-6.904542155098749;0
55014;BME280;40916;51.632;5.552;2022-12-18T00:48:29;1023.4236014243505;;;-6.8543696502716;0
55014;BME280;40916;51.632;5.552;2022-12-18T00:49:29;1023.3421403814788;;;-6.8543696502716;0
55014;BME280;40916;51.632;5.552;2022-12-18T00:50:29;1023.381278307388;;;-6.84601107205695;0
55014;BME280;40916;51.632;5.552;2022-12-18T00:51:29;1023.2996389910038;;;-6.8543696502716;0
55014;BME280;40916;51.632;5.552;2022-12-18T00:52:29;1023.2535958359394;;;-6.8543696502716;0
55014;BME280;40916;51.632;5.552;2022-12-18T00:53:30;1023.2429704951142;;;-6.8543696502716;0
55014;BME280;40916;51.632;5.552;2022-12-18T00:54:30;1023.1896653642849;;;-6.862729229482049;0
55014;BME280;40916;51.632;5.552;2022-12-18T00:55:30;1023.1574231646415;;;-6.879451392561357;0
55014;BME280;40916;51.632;5.552;2022-12-18T00:56:30;1023.1999221289835;;;-6.879451392561357;0
55014;BME280;40916;51.632;5.552;2022-12-18T00:57:30;1023.2429704951142;;;-6.8543696502716;0
55014;BME280;40916;51.632;5.552;2022-12-18T00:58:30;1023.1898438059004;;;-6.8543696502716;0
55014;BME280;40916;51.632;5.552;2022-12-18T00:59:30;1023.1512285948427;;;-6.8376534944206355;0
55014;BME280;40916;51.632;5.552;2022-12-18T01:00:30;1023.1517174123071;;;-6.81258676081055;0
55014;BME280;40916;51.632;5.552;2022-12-18T01:01:31;1023.2979742636596;;;-6.754132658189782;0
55014;BME280;40916;51.632;5.552;2022-12-18T01:02:31;1023.1418310191874;;;-6.7708288441311275;0
55014;BME280;40916;51.632;5.552;2022-12-18T01:03:31;1023.1735717385117;;;-6.779178432141617;0
55014;BME280;40916;51.632;5.552;2022-12-18T01:04:31;1023.2016161874349;;;-6.795880600319119;0
55014;BME280;40916;51.632;5.552;2022-12-18T01:05:31;1023.2545960204438;;;-6.804233181317585;0
55014;BME280;40916;51.632;5.552;2022-12-18T01:06:31;1023.2401092196517;;;-6.820941339214318;0
55014;BME280;40916;51.632;5.552;2022-12-18T01:07:31;1023.3106146134835;;;-6.8376534944206355;0
55014;BME280;40916;51.632;5.552;2022-12-18T01:08:31;1023.309899273821;;;-6.8710898101059925;0
55014;BME280;40916;51.632;5.552;2022-12-18T01:09:31;1023.30262802514;;;-6.879451392561357;0
55014;BME280;40916;51.632;5.552;2022-12-18T01:10:31;1023.3409972289013;;;-6.904542155098749;0
55014;BME280;40916;51.632;5.552;2022-12-18T01:11:32;1023.425990563494;;;-6.904542155098749;0
55014;BME280;40916;51.632;5.552;2022-12-18T01:12:32;1023.4362004991578;;;-6.921274346953268;0
55014;BME280;40916;51.632;5.552;2022-12-18T01:13:32;1023.4786956112246;;;-6.921274346953268;0
55014;BME280;40916;51.632;5.552;2022-12-18T01:14:32;1023.4649458631085;;;-6.904542155098749;0
55014;BME280;40916;51.632;5.552;2022-12-18T01:15:32;1023.4759709053191;;;-6.887813977266305;0
55014;BME280;40916;51.632;5.552;2022-12-18T01:16:32;1023.5580040658178;;;-6.862729229482049;0
55014;BME280;40916;51.632;5.552;2022-12-18T01:17:32;1023.4873535856198;;;-6.8543696502716;0
55014;BME280;40916;51.632;5.552;2022-12-18T01:18:32;1023.4629170180855;;;-6.8376534944206355;0
55014;BME280;40916;51.632;5.552;2022-12-18T01:19:32;1023.5233032027193;;;-6.829296916945424;0
55014;BME280;40916;51.632;5.552;2022-12-18T01:20:32;1023.4949673140162;;;-6.829296916945424;0
55014;BME280;40916;51.632;5.552;2022-12-18T01:21:33;1023.6084823488786;;;-6.820941339214318;0
55014;BME280;40916;51.632;5.552;2022-12-18T01:22:33;1023.5372973364304;;;-6.8376534944206355;0
55014;BME280;40916;51.632;5.552;2022-12-18T01:23:33;1023.5548291058122;;;-6.84601107205695;0
55014;BME280;40916;51.632;5.552;2022-12-18T01:24:33;1023.4873535856198;;;-6.8543696502716;0
55014;BME280;40916;51.632;5.552;2022-12-18T01:25:35;1023.522398495189;;;-6.8710898101059925;0
55014;BME280;40916;51.632;5.552;2022-12-18T01:26:33;1023.4940652426985;;;-6.8710898101059925;0
55014;BME280;40916;51.632;5.552;2022-12-18T01:27:33;1023.422848062172;;;-6.887813977266305;0
55014;BME280;40916;51.632;5.552;2022-12-18T01:28:33;1023.4507802980662;;;-6.904542155098749;0
55014;BME280;40916;51.632;5.552;2022-12-18T01:29:33;1023.4678585597104;;;-6.929641949186685;0
55014;BME280;40916;51.632;5.552;2022-12-18T01:30:33;1023.4778194736026;;;-6.954750786146967;0
55014;BME280;40916;51.632;5.552;2022-12-18T01:31:33;1023.5304721071155;;;-6.9714950402047045;0
55014;BME280;40916;51.632;5.552;2022-12-18T01:32:34;1023.511548588161;;;-7.013373302853054;0
55014;BME280;40916;51.632;5.552;2022-12-18T01:33:34;1023.5107724205257;;;-7.038512364733087;0
55014;BME280;40916;51.632;5.552;2022-12-18T01:34:34;1023.4889951223884;;;-7.055276789811007;0
55014;BME280;40916;51.632;5.552;2022-12-18T01:35:39;1023.4601243585274;;;-7.072045259229029;0
55014;BME280;40916;51.632;5.552;2022-12-18T01:36:35;1023.4601243585274;;;-7.072045259229029;0
55014;BME280;40916;51.632;5.552;2022-12-18T01:37:34;1023.5562590182653;;;-7.055276789811007;0
55014;BME280;40916;51.632;5.552;2022-12-18T01:38:34;1023.4489404834995;;;-7.0888177763746505;0
55014;BME280;40916;51.632;5.552;2022-12-18T01:39:34;1023.371061865976;;;-7.0888177763746505;0
55014;BME280;40916;51.632;5.552;2022-12-18T01:40:35;1023.3704861782888;;;-7.105594344639147;0
55014;BME280;40916;51.632;5.552;2022-12-18T01:41:34;1023.3094213493121;;;-7.130766800311534;0
55014;BME280;40916;51.632;5.552;2022-12-18T01:42:35;1023.3383350974126;;;-7.113984149001787;0
55014;BME280;40916;51.632;5.552;2022-12-18T01:43:43;1023.3138493332642;;;-7.105594344639147;0
55014;BME280;40916;51.632;5.552;2022-12-18T01:45:08;1023.3144229049593;;;-7.0888177763746505;0
55014;BME280;40916;51.632;5.552;2022-12-18T01:45:35;1023.290201081264;;;-7.072045259229029;0
55014;BME280;40916;51.632;5.552;2022-12-18T01:46:35;1023.3228720536226;;;-7.046894071941104;0
55014;BME280;40916;51.632;5.552;2022-12-18T01:47:36;1023.2376409167252;;;-7.055276789811007;0
55014;BME280;40916;51.632;5.552;2022-12-18T01:48:35;1023.2877314198995;;;-7.038512364733087;0
55014;BME280;40916;51.632;5.552;2022-12-18T01:49:35;1023.2280564264803;;;-7.021751980611555;0
55014;BME280;40916;51.632;5.552;2022-12-18T01:50:36;1023.2748229742358;;;-6.996618973829889;0
55014;BME280;40916;51.632;5.552;2022-12-18T01:51:36;1023.242468246634;;;-7.013373302853054;0
55014;BME280;40916;51.632;5.552;2022-12-18T01:52:36;1023.2313433833842;;;-7.030131667764106;0
55014;BME280;40916;51.632;5.552;2022-12-18T01:53:36;1023.2422182678425;;;-7.021751980611555;0
55014;BME280;40916;51.632;5.552;2022-12-18T01:54:36;1023.2776228789747;;;-7.021751980611555;0
55014;BME280;40916;51.632;5.552;2022-12-18T01:55:36;1023.2487877980451;;;-7.038512364733087;0
55014;BME280;40916;51.632;5.552;2022-12-18T01:56:36;1023.2176845630339;;;-7.013373302853054;0
55014;BME280;40916;51.632;5.552;2022-12-18T01:57:36;1023.1714090786922;;;-7.021751980611555;0
55014;BME280;40916;51.632;5.552;2022-12-18T01:58:38;1023.3494176517356;;;-6.988243321721654;0
55014;BME280;40916;51.632;5.552;2022-12-18T01:59:36;1023.2535790180629;;;-6.996618973829889;0
55014;BME280;40916;51.632;5.552;2022-12-18T02:00:37;1023.2358757242879;;;-6.996618973829889;0
55014;BME280;40916;51.632;5.552;2022-12-18T02:01:37;1023.2431958601255;;;-6.988243321721654;0
55014;BME280;40916;51.632;5.552;2022-12-18T02:02:37;1023.2965428350981;;;-6.979868677320326;0
55014;BME280;40916;51.632;5.552;2022-12-18T02:03:37;1023.3246325581397;;;-6.988243321721654;0
55014;BME280;40916;51.632;5.552;2022-12-18T02:04:37;1023.3069289231687;;;-6.988243321721654;0
55014;BME280;40916;51.632;5.552;2022-12-18T02:05:40;1023.3567363220358;;;-6.979868677320326;0
55014;BME280;40916;51.632;5.552;2022-12-18T02:06:38;1023.3385548665996;;;-6.996618973829889;0
55014;BME280;40916;51.632;5.552;2022-12-18T02:07:40;1023.2422182678425;;;-7.021751980611555;0
55014;BME280;40916;51.632;5.552;2022-12-18T02:08:38;1023.2667473305943;;;-7.030131667764106;0
55014;BME280;40916;51.632;5.552;2022-12-18T02:09:39;1023.1981594122421;;;-7.072045259229029;0
55014;BME280;40916;51.632;5.552;2022-12-18T02:10:40;1023.2474441044919;;;-7.080431011624025;0
55014;BME280;40916;51.632;5.552;2022-12-18T02:11:39;1023.2468805132124;;;-7.097205553904939;0
55014;BME280;40916;51.632;5.552;2022-12-18T02:12:40;1023.174916500125;;;-7.130766800311534;0
55014;BME280;40916;51.632;5.552;2022-12-18T02:13:41;1023.1887736084454;;;-7.139159648108837;0
55014;BME280;40916;51.632;5.552;2022-12-18T02:14:39;1023.2244708997116;;;-7.130766800311534;0
55014;BME280;40916;51.632;5.552;2022-12-18T02:15:39;1023.230632627158;;;-7.155948390115551;0
55014;BME280;40916;51.632;5.552;2022-12-18T02:16:39;1023.2058568126;;;-7.155948390115551;0
55014;BME280;40916;51.632;5.552;2022-12-18T02:17:39;1023.2377114323102;;;-7.155948390115551;0
55014;BME280;40916;51.632;5.552;2022-12-18T02:18:40;1023.1724034820969;;;-7.197938035751839;0
55014;BME280;40916;51.632;5.552;2022-12-18T02:19:44;1023.1961713585038;;;-7.22314403948365;0
55014;BME280;40916;51.632;5.552;2022-12-18T02:20:40;1023.1247074155522;;;-7.23995313924102;0
55014;BME280;40916;51.632;5.552;2022-12-18T02:21:40;1023.2160096168119;;;-7.256766320809934;0
55014;BME280;40916;51.632;5.552;2022-12-18T02:22:41;1023.125724431431;;;-7.298817155172696;0
55014;BME280;40916;51.632;5.552;2022-12-18T02:23:44;1023.2095010451585;;;-7.324059933846936;0
55014;BME280;40916;51.632;5.552;2022-12-18T02:24:41;1023.2413437424033;;;-7.324059933846936;0
55014;BME280;40916;51.632;5.552;2022-12-18T02:25:51;1023.2468415541308;;;-7.357731320582193;0
55014;BME280;40916;51.632;5.552;2022-12-18T02:26:40;1023.18860205578;;;-7.391419130914585;0
55014;BME280;40916;51.632;5.552;2022-12-18T02:27:39;1023.2439340360777;;;-7.41669578329055;0
55014;BME280;40916;51.632;5.552;2022-12-18T02:28:41;1023.2355569102092;;;-7.441981701196212;0
55014;BME280;40916;51.632;5.552;2022-12-18T02:29:41;1023.2634118516105;;;-7.450412401528883;0
55014;BME280;40916;51.632;5.552;2022-12-18T02:30:40;1023.2474576603125;;;-7.48414551959814;0
55014;BME280;40916;51.632;5.552;2022-12-18T02:31:42;1023.1930141656322;;;-7.509456202908275;0
55014;BME280;40916;51.632;5.552;2022-12-18T02:32:40;1023.1441582179866;;;-7.560105507056136;0
55014;BME280;40916;51.632;5.552;2022-12-18T02:33:40;1023.1976919596447;;;-7.551661366645455;0
55014;BME280;40916;51.632;5.552;2022-12-18T02:34:40;1023.2573171594771;;;-7.560105507056136;0
55014;BME280;40916;51.632;5.552;2022-12-18T02:35:40;1023.2386420413118;;;-7.5769968990396706;0
55014;BME280;40916;51.632;5.552;2022-12-18T02:36:41;1023.2765282497942;;;-7.593892442159298;0
55014;BME280;40916;51.632;5.552;2022-12-18T02:37:41;1023.2588484855843;;;-7.593892442159298;0
55014;BME280;40916;51.632;5.552;2022-12-18T02:38:41;1023.2795530499527;;;-7.602341771491027;0
55014;BME280;40916;51.632;5.552;2022-12-18T02:39:41;1023.185544185183;;;-7.636149484205188;0
55014;BME280;40916;51.632;5.552;2022-12-18T02:40:41;1023.2021607672996;;;-7.653059583947101;0
55014;BME280;40916;51.632;5.552;2022-12-18T02:41:41;1023.3329737773977;;;-7.653059583947101;0
55014;BME280;40916;51.632;5.552;2022-12-18T02:42:41;1023.1880188292878;;;-7.653059583947101;0
55014;BME280;40916;51.632;5.552;2022-12-18T02:43:45;1023.164330482711;;;-7.636149484205188;0
55014;BME280;40916;51.632;5.552;2022-12-18T02:44:42;1023.2567825766248;;;-7.6276959958400035;0
55014;BME280;40916;51.632;5.552;2022-12-18T02:45:50;1023.1577834056986;;;-7.6276959958400035;0
55014;BME280;40916;51.632;5.552;2022-12-18T02:46:42;1023.1234621055966;;;-7.610792139922324;0
55014;BME280;40916;51.632;5.552;2022-12-18T02:47:43;1023.1739856556915;;;-7.593892442159298;0
55014;BME280;40916;51.632;5.552;2022-12-18T02:48:42;1023.1340695517634;;;-7.610792139922324;0
55014;BME280;40916;51.632;5.552;2022-12-18T02:49:44;1023.105267509594;;;-7.619243547892225;0
55014;BME280;40916;51.632;5.552;2022-12-18T02:50:44;1023.0128204896981;;;-7.6276959958400035;0
55014;BME280;40916;51.632;5.552;2022-12-18T02:51:45;1023.0269632050642;;;-7.6276959958400035;0
55014;BME280;40916;51.632;5.552;2022-12-18T02:52:44;1022.9668566769226;;;-7.6276959958400035;0
55014;BME280;40916;51.632;5.552;2022-12-18T02:53:43;1023.0057491326756;;;-7.6276959958400035;0
55014;BME280;40916;51.632;5.552;2022-12-18T02:54:48;1023.0057491326756;;;-7.6276959958400035;0
55014;BME280;40916;51.632;5.552;2022-12-18T02:55:45;1022.9521936759483;;;-7.636149484205188;0
55014;BME280;40916;51.632;5.552;2022-12-18T02:56:44;1022.9299287699262;;;-7.653059583947101;0
55014;BME280;40916;51.632;5.552;2022-12-18T02:57:44;1022.83093547814;;;-7.653059583947101;0
55014;BME280;40916;51.632;5.552;2022-12-18T02:58:44;1022.9576806939821;;;-7.661516196204122;0
55014;BME280;40916;51.632;5.552;2022-12-18T02:59:45;1022.8864381255338;;;-7.669973850639128;0
55014;BME280;40916;51.632;5.552;2022-12-18T03:00:43;1022.8706714627468;;;-7.695353071420943;0
55014;BME280;40916;51.632;5.552;2022-12-18T03:01:45;1022.8195225376406;;;-7.7207416876870845;0
55014;BME280;40916;51.632;5.552;2022-12-18T03:02:44;1022.8602479649943;;;-7.746139711371828;0
55014;BME280;40916;51.632;5.552;2022-12-18T03:03:44;1022.9556860099531;;;-7.746139711371828;0
55014;BME280;40916;51.632;5.552;2022-12-18T03:04:44;1022.9651378170203;;;-7.763076959407954;0
55014;BME280;40916;51.632;5.552;2022-12-18T03:05:44;1022.917433045893;;;-7.788490688699266;0
55014;BME280;40916;51.632;5.552;2022-12-18T03:06:44;1022.9627868727916;;;-7.796964028835397;0
55014;BME280;40916;51.632;5.552;2022-12-18T03:07:45;1022.9274434400954;;;-7.796964028835397;0
55014;BME280;40916;51.632;5.552;2022-12-18T03:08:45;1022.9268467606952;;;-7.8054384182316845;0
55014;BME280;40916;51.632;5.552;2022-12-18T03:09:45;1022.9339153128329;;;-7.8054384182316845;0
55014;BME280;40916;51.632;5.552;2022-12-18T03:10:45;1022.997532301873;;;-7.8054384182316845;0
55014;BME280;40916;51.632;5.552;2022-12-18T03:11:45;1022.9073632578535;;;-7.830867886430397;0
55014;BME280;40916;51.632;5.552;2022-12-18T03:12:45;1022.9503808589368;;;-7.822390346584044;0
55014;BME280;40916;51.632;5.552;2022-12-18T03:13:45;1022.9285677103156;;;-7.830867886430397;0
55014;BME280;40916;51.632;5.552;2022-12-18T03:14:44;1022.9144314082342;;;-7.830867886430397;0
55014;BME280;40916;51.632;5.552;2022-12-18T03:15:45;1022.8335912099863;;;-7.873271360192209;0
55014;BME280;40916;51.632;5.552;2022-12-18T03:16:45;1022.8111263578703;;;-7.8902401194759335;0
55014;BME280;40916;51.632;5.552;2022-12-18T03:17:46;1022.8021369603613;;;-7.915701165769136;0
55014;BME280;40916;51.632;5.552;2022-12-18T03:18:46;1022.8050218399907;;;-7.924190291622487;0
55014;BME280;40916;51.632;5.552;2022-12-18T03:19:45;1022.794421829559;;;-7.924190291622487;0
55014;BME280;40916;51.632;5.552;2022-12-18T03:20:45;1022.803713191725;;;-7.941171711652025;0
55014;BME280;40916;51.632;5.552;2022-12-18T03:21:46;1022.8503019702118;;;-7.93268047343393;0
55014;BME280;40916;51.632;5.552;2022-12-18T03:22:46;1022.9376967844677;;;-7.898726080143781;0
55014;BME280;40916;51.632;5.552;2022-12-18T03:23:46;1022.848071218206;;;-7.915701165769136;0
55014;BME280;40916;51.632;5.552;2022-12-18T03:24:46;1022.8965676421906;;;-7.881755212974504;0
55014;BME280;40916;51.632;5.552;2022-12-18T03:25:46;1022.871831926929;;;-7.881755212974504;0
55014;BME280;40916;51.632;5.552;2022-12-18T03:26:46;1022.8836903240602;;;-7.864788560682012;0
55014;BME280;40916;51.632;5.552;2022-12-18T03:27:46;1022.9391699380315;;;-7.830867886430397;0
55014;BME280;40916;51.632;5.552;2022-12-18T03:28:47;1022.8578862175061;;;-7.830867886430397;0
55014;BME280;40916;51.632;5.552;2022-12-18T03:29:47;1022.8272884200205;;;-7.813913857332896;0
55014;BME280;40916;51.632;5.552;2022-12-18T03:30:47;1022.7966728347648;;;-7.796964028835397;0
55014;BME280;40916;51.632;5.552;2022-12-18T03:31:47;1022.8644169211304;;;-7.788490688699266;0
55014;BME280;40916;51.632;5.552;2022-12-18T03:32:47;1022.757795116274;;;-7.796964028835397;0
55014;BME280;40916;51.632;5.552;2022-12-18T03:33:47;1022.8520303282276;;;-7.763076959407954;0
55014;BME280;40916;51.632;5.552;2022-12-18T03:34:47;1022.7666215501823;;;-7.77154715442968;0
55014;BME280;40916;51.632;5.552;2022-12-18T03:35:47;1022.799011231637;;;-7.763076959407954;0
55014;BME280;40916;51.632;5.552;2022-12-18T03:36:47;1022.7465661550337;;;-7.754607811869839;0
55014;BME280;40916;51.632;5.552;2022-12-18T03:37:47;1022.8790554109296;;;-7.729206649723334;0
55014;BME280;40916;51.632;5.552;2022-12-18T03:38:47;1022.8224974270013;;;-7.729206649723334;0
55014;BME280;40916;51.632;5.552;2022-12-18T03:39:47;1022.7212499347477;;;-7.763076959407954;0
55014;BME280;40916;51.632;5.552;2022-12-18T03:40:51;1022.7389229520923;;;-7.763076959407954;0
55014;BME280;40916;51.632;5.552;2022-12-18T03:41:49;1022.7342292376462;;;-7.780018397378779;0
55014;BME280;40916;51.632;5.552;2022-12-18T03:42:48;1022.6670743243249;;;-7.780018397378779;0
55014;BME280;40916;51.632;5.552;2022-12-18T03:44:49;1022.6576270950807;;;-7.763076959407954;0
55014;BME280;40916;51.632;5.552;2022-12-18T03:45:50;1022.71418072858;;;-7.763076959407954;0
55014;BME280;40916;51.632;5.552;2022-12-18T03:46:49;1022.6287746559581;;;-7.77154715442968;0
55014;BME280;40916;51.632;5.552;2022-12-18T03:47:52;1022.6764415858801;;;-7.746139711371828;0
55014;BME280;40916;51.632;5.552;2022-12-18T03:48:49;1022.7341256335054;;;-7.729206649723334;0
55014;BME280;40916;51.632;5.552;2022-12-18T03:49:50;1022.6150485033694;;;-7.7122777709194;0
55014;BME280;40916;51.632;5.552;2022-12-18T03:50:49;1022.7162068460865;;;-7.678432547692882;0
55014;BME280;40916;51.632;5.552;2022-12-18T03:51:49;1022.688989813942;;;-7.661516196204122;0
55014;BME280;40916;51.632;5.552;2022-12-18T03:52:49;1022.5864631983454;;;-7.661516196204122;0
55014;BME280;40916;51.632;5.552;2022-12-18T03:53:50;1022.6097538421853;;;-7.6276959958400035;0
55014;BME280;40916;51.632;5.552;2022-12-18T03:54:49;1022.554197281407;;;-7.610792139922324;0
55014;BME280;40916;51.632;5.552;2022-12-18T03:55:49;1022.590057246121;;;-7.602341771491027;0
55014;BME280;40916;51.632;5.552;2022-12-18T03:56:51;1022.633481763463;;;-7.585444151488357;0
55014;BME280;40916;51.632;5.552;2022-12-18T03:57:49;1022.5986124536337;;;-7.5769968990396706;0
55014;BME280;40916;51.632;5.552;2022-12-18T03:58:49;1022.577396064984;;;-7.5769968990396706;0
55014;BME280;40916;51.632;5.552;2022-12-18T03:59:50;1022.5481242437438;;;-7.593892442159298;0
55014;BME280;40916;51.632;5.552;2022-12-18T04:00:50;1022.5420354260434;;;-7.5769968990396706;0
55014;BME280;40916;51.632;5.552;2022-12-18T04:01:50;1022.5722464514408;;;-7.543218262705345;0
55014;BME280;40916;51.632;5.552;2022-12-18T04:02:51;1022.4267848062642;;;-7.551661366645455;0
55014;BME280;40916;51.632;5.552;2022-12-18T04:03:50;1022.3968220335679;;;-7.517895165336661;0
55014;BME280;40916;51.632;5.552;2022-12-18T04:04:50;1022.4976549729884;;;-7.48414551959814;0
55014;BME280;40916;51.632;5.552;2022-12-18T04:05:52;1022.472897421519;;;-7.48414551959814;0
55014;BME280;40916;51.632;5.552;2022-12-18T04:06:50;1022.4914634557948;;;-7.467276896346217;0
55014;BME280;40916;51.632;5.552;2022-12-18T04:07:50;1022.464033890215;;;-7.450412401528883;0
55014;BME280;40916;51.632;5.552;2022-12-18T04:08:50;1022.4534227161815;;;-7.450412401528883;0
55014;BME280;40916;51.632;5.552;2022-12-18T04:09:50;1022.3185862967915;;;-7.458844133100683;0
55014;BME280;40916;51.632;5.552;2022-12-18T04:10:51;1022.3906035876644;;;-7.433552031668306;0
55014;BME280;40916;51.632;5.552;2022-12-18T04:11:51;1022.4007929012653;;;-7.441981701196212;0
55014;BME280;40916;51.632;5.552;2022-12-18T04:12:51;1022.4353069348618;;;-7.458844133100683;0
55014;BME280;40916;51.632;5.552;2022-12-18T04:13:52;1022.2960579251353;;;-7.48414551959814;0
55014;BME280;40916;51.632;5.552;2022-12-18T04:14:51;1022.2960579251353;;;-7.48414551959814;0